Time;durP1;ratioP1;P1;durP2;ratioP2;P2;SDS_P1;SDS_P2;PMS_P1;PMS_P2;Temp;Humidity;BMP_temperature;BMP_pressure;BME280_temperature;BME280_humidity;BME280_pressure;Samples;Min_cycle;Max_cycle;Signal;HPM_P1;HPM_P2
2023/08/16 00:00:49;;;;;;;13.75;7.68;;;;;20.70;96602.00;;;;8300920;28;20205;-70
2023/08/16 00:04:55;;;;;;;9.80;6.72;;;;;20.70;96597.00;;;;8300095;28;20663;-70
2023/08/16 00:09:20;;;;;;;8.48;6.40;;;;;20.70;96591.00;;;;8300138;28;20230;-70
2023/08/16 00:13:25;;;;;;;11.32;6.57;;;;;20.70;96586.00;;;;8300287;28;20509;-70
2023/08/16 00:17:28;;;;;;;11.60;7.10;;;;;20.80;96581.00;;;;8300786;28;20694;-70
2023/08/16 00:21:35;;;;;;;11.38;6.20;;;;;20.90;96578.00;;;;8299898;28;20278;-71
2023/08/16 00:25:41;;;;;;;9.85;6.05;;;;;20.90;96585.00;;;;8300390;28;20302;-70
2023/08/16 00:29:46;;;;;;;11.50;6.93;;;;;20.90;96575.00;;;;8299955;28;20281;-70
2023/08/16 00:33:50;;;;;;;10.95;6.63;;;;;20.80;96566.00;;;;8299177;28;20289;-70
2023/08/16 00:37:58;;;;;;;9.05;6.13;;;;;20.80;96567.00;;;;8300634;28;20637;-70
2023/08/16 00:42:01;;;;;;;7.85;6.35;;;;;20.60;96560.00;;;;8298245;28;20194;-70
2023/08/16 00:46:06;;;;;;;9.68;6.38;;;;;20.50;96557.00;;;;8300021;28;20695;-70
2023/08/16 00:50:10;;;;;;;14.63;7.57;;;;;20.40;96555.00;;;;8281902;28;20205;-70
2023/08/16 00:54:15;;;;;;;15.73;7.20;;;;;20.40;96545.00;;;;8299317;28;20194;-70
2023/08/16 00:58:18;;;;;;;8.90;6.75;;;;;20.30;96545.00;;;;8298991;28;20640;-70
2023/08/16 01:02:23;;;;;;;12.30;7.85;;;;;20.20;96544.00;;;;8295856;28;20329;-70
2023/08/16 01:06:27;;;;;;;12.60;7.50;;;;;20.10;96537.00;;;;8299044;28;20276;-70
2023/08/16 01:10:36;;;;;;;11.07;7.00;;;;;20.10;96540.00;;;;8299409;28;20731;-69
2023/08/16 01:14:49;;;;;;;10.98;7.38;;;;;20.00;96531.00;;;;8298468;28;20198;-70
2023/08/16 01:19:01;;;;;;;14.15;7.72;;;;;19.90;96525.00;;;;8299152;28;20309;-70
2023/08/16 01:23:06;;;;;;;12.30;7.60;;;;;19.90;96529.00;;;;8297679;28;20277;-69
2023/08/16 01:27:18;;;;;;;13.18;7.93;;;;;19.80;96528.00;;;;8299917;28;20623;-70
2023/08/16 01:31:23;;;;;;;12.68;8.18;;;;;19.80;96530.00;;;;8298271;28;20201;-69
2023/08/16 01:35:26;;;;;;;13.45;8.30;;;;;19.70;96530.00;;;;8298112;28;20190;-70
2023/08/16 01:39:30;;;;;;;14.27;8.30;;;;;19.70;96533.00;;;;8298844;28;20232;-70
2023/08/16 01:43:35;;;;;;;13.98;7.63;;;;;19.60;96535.00;;;;8298450;28;20281;-70
2023/08/16 01:47:39;;;;;;;16.45;8.57;;;;;19.50;96538.00;;;;8298983;28;20281;-70
2023/08/16 01:51:42;;;;;;;11.40;8.27;;;;;19.50;96534.00;;;;8297896;28;20194;-69
2023/08/16 01:55:48;;;;;;;18.67;9.23;;;;;19.50;96538.00;;;;8297834;28;20333;-69
2023/08/16 01:59:52;;;;;;;16.08;8.88;;;;;19.50;96543.00;;;;8279895;28;20572;-69
2023/08/16 02:03:57;;;;;;;14.68;8.57;;;;;19.50;96558.00;;;;8298012;28;20218;-69
2023/08/16 02:08:03;;;;;;;22.02;9.10;;;;;19.40;96564.00;;;;8298262;28;20202;-69
2023/08/16 02:12:09;;;;;;;16.42;10.30;;;;;19.40;96565.00;;;;8304158;28;20616;-69
2023/08/16 02:16:14;;;;;;;21.70;10.63;;;;;19.50;96583.00;;;;8303618;28;20336;-69
2023/08/16 02:20:20;;;;;;;18.92;9.95;;;;;19.60;96591.00;;;;8304410;28;20194;-69
2023/08/16 02:24:23;;;;;;;16.27;9.13;;;;;19.80;96601.00;;;;8304785;28;20289;-69
2023/08/16 02:28:34;;;;;;;13.77;9.35;;;;;19.80;96593.00;;;;8303880;28;20178;-69
2023/08/16 02:32:40;;;;;;;17.15;9.05;;;;;19.90;96602.00;;;;8302118;28;20237;-69
2023/08/16 02:36:44;;;;;;;16.65;10.45;;;;;19.90;96602.00;;;;8303917;28;20210;-68
2023/08/16 02:40:50;;;;;;;15.55;10.05;;;;;19.90;96597.00;;;;8303238;28;20326;-69
2023/08/16 02:44:56;;;;;;;21.27;10.90;;;;;19.90;96595.00;;;;8303017;28;20273;-69
2023/08/16 02:49:03;;;;;;;20.67;10.65;;;;;19.90;96597.00;;;;8303094;28;20687;-69
2023/08/16 02:53:06;;;;;;;27.45;12.65;;;;;19.80;96603.00;;;;8302370;28;20610;-69
2023/08/16 02:57:13;;;;;;;19.35;11.90;;;;;19.80;96601.00;;;;8301724;28;20226;-69
2023/08/16 03:01:18;;;;;;;22.40;12.35;;;;;19.80;96610.00;;;;8309082;22;20283;-70
2023/08/16 03:05:29;;;;;;;25.85;13.75;;;;;19.90;96606.00;;;;8307735;28;20297;-69
2023/08/16 03:09:32;;;;;;;28.52;13.45;;;;;19.90;96613.00;;;;8311687;28;20225;-70
2023/08/16 03:13:35;;;;;;;34.85;18.00;;;;;19.90;96611.00;;;;8316402;28;20240;-69
2023/08/16 03:17:39;;;;;;;97.13;25.23;;;;;19.90;96616.00;;;;8313181;28;20906;-67
2023/08/16 03:21:46;;;;;;;48.80;20.42;;;;;19.90;96616.00;;;;8300957;28;20217;-67
2023/08/16 03:25:56;;;;;;;57.03;22.05;;;;;20.00;96626.00;;;;8312035;28;20194;-67
2023/08/16 03:30:02;;;;;;;100.10;26.30;;;;;20.10;96631.00;;;;8311668;28;20785;-67
2023/08/16 03:34:05;;;;;;;323.90;37.13;;;;;20.10;96629.00;;;;8315929;28;20890;-67
2023/08/16 03:38:13;;;;;;;170.43;28.83;;;;;20.20;96637.00;;;;8312465;28;20733;-67
2023/08/16 03:42:16;;;;;;;353.75;36.88;;;;;20.20;96641.00;;;;8311114;28;20255;-67
2023/08/16 03:46:19;;;;;;;865.22;55.75;;;;;20.30;96647.00;;;;8311007;28;20201;-67
2023/08/16 03:50:23;;;;;;;438.08;39.83;;;;;20.20;96649.00;;;;8310915;28;20635;-70
2023/08/16 03:54:29;;;;;;;844.75;55.15;;;;;20.20;96660.00;;;;8313558;28;20205;-70
2023/08/16 03:58:33;;;;;;;756.65;49.90;;;;;20.20;96657.00;;;;8310364;28;20236;-70
2023/08/16 04:02:38;;;;;;;400.00;37.10;;;;;20.20;96661.00;;;;8289177;28;20236;-71
2023/08/16 04:06:44;;;;;;;707.35;48.83;;;;;20.10;96648.00;;;;8260082;28;20224;-70
2023/08/16 04:10:52;;;;;;;440.70;40.53;;;;;20.10;96655.00;;;;8274794;28;20293;-69
2023/08/16 04:14:56;;;;;;;461.70;42.80;;;;;20.00;96660.00;;;;8282317;28;20210;-69
2023/08/16 04:19:03;;;;;;;202.38;33.88;;;;;19.90;96662.00;;;;8283452;28;20855;-69
2023/08/16 04:23:08;;;;;;;184.80;31.65;;;;;19.90;96654.00;;;;8281969;28;20204;-69
2023/08/16 04:27:12;;;;;;;86.22;26.30;;;;;19.80;96662.00;;;;8280211;28;20594;-69
2023/08/16 04:31:16;;;;;;;88.07;25.58;;;;;19.80;96660.00;;;;8277094;28;20227;-70
2023/08/16 04:35:20;;;;;;;91.78;25.13;;;;;19.70;96662.00;;;;8280008;28;20521;-71
2023/08/16 04:39:29;;;;;;;64.18;22.38;;;;;19.70;96661.00;;;;8288545;28;20244;-71
2023/08/16 04:43:37;;;;;;;64.70;22.95;;;;;19.60;96663.00;;;;8278448;28;20479;-70
2023/08/16 04:47:40;;;;;;;59.05;22.23;;;;;19.60;96664.00;;;;8278009;28;20895;-70
2023/08/16 04:51:46;;;;;;;80.85;23.60;;;;;19.60;96657.00;;;;8275128;28;20202;-70
2023/08/16 04:55:49;;;;;;;110.30;24.75;;;;;19.70;96659.00;;;;8264629;28;20671;-70
2023/08/16 04:59:54;;;;;;;297.33;32.33;;;;;19.70;96653.00;;;;8283034;28;20780;-70
2023/08/16 05:03:57;;;;;;;539.55;39.72;;;;;19.90;96671.00;;;;8284082;28;20259;-70
2023/08/16 05:08:02;;;;;;;283.77;32.05;;;;;20.20;96665.00;;;;8271090;28;20304;-70
2023/08/16 05:12:05;;;;;;;282.10;33.17;;;;;20.40;96667.00;;;;8264352;28;20203;-70
2023/08/16 05:16:10;;;;;;;67.25;23.00;;;;;20.60;96674.00;;;;8275526;28;20293;-70
2023/08/16 05:20:14;;;;;;;47.97;20.08;;;;;20.80;96669.00;;;;8275508;28;20682;-71
2023/08/16 05:24:17;;;;;;;41.05;18.60;;;;;21.10;96669.00;;;;8279804;28;20256;-71
2023/08/16 05:28:20;;;;;;;36.70;17.73;;;;;21.30;96662.00;;;;8277479;28;20199;-71
2023/08/16 05:32:25;;;;;;;25.35;15.45;;;;;21.50;96666.00;;;;8273207;28;20204;-70
2023/08/16 05:36:29;;;;;;;25.02;15.55;;;;;21.70;96659.00;;;;8269976;28;20637;-71
2023/08/16 05:40:33;;;;;;;19.35;13.73;;;;;21.80;96666.00;;;;8265480;28;20265;-70
2023/08/16 05:44:36;;;;;;;22.17;14.20;;;;;21.90;96673.00;;;;8273639;28;20202;-67
2023/08/16 05:48:44;;;;;;;15.68;11.98;;;;;21.90;96672.00;;;;8273546;28;20202;-68
2023/08/16 05:52:47;;;;;;;15.35;11.82;;;;;22.00;96674.00;;;;8275282;28;20909;-68
2023/08/16 05:56:50;;;;;;;18.98;13.30;;;;;22.10;96680.00;;;;8281745;28;20218;-68
2023/08/16 06:00:54;;;;;;;17.60;13.48;;;;;22.20;96683.00;;;;8286673;28;20202;-68
2023/08/16 06:05:01;;;;;;;16.25;12.55;;;;;22.30;96687.00;;;;8286720;28;20287;-68
2023/08/16 06:09:08;;;;;;;13.32;10.90;;;;;22.50;96697.00;;;;8284396;28;20265;-68
2023/08/16 06:13:11;;;;;;;13.45;10.85;;;;;22.60;96703.00;;;;8286815;28;20204;-69
2023/08/16 06:17:14;;;;;;;15.13;10.93;;;;;22.80;96709.00;;;;8289037;28;20218;-71
2023/08/16 06:21:21;;;;;;;19.13;11.70;;;;;22.90;96712.00;;;;8280893;28;20630;-71
2023/08/16 06:25:26;;;;;;;12.73;10.35;;;;;23.00;96709.00;;;;8288551;28;20313;-70
2023/08/16 06:29:29;;;;;;;13.55;11.15;;;;;23.10;96712.00;;;;8282133;28;20734;-69
2023/08/16 06:33:34;;;;;;;16.00;12.07;;;;;23.20;96713.00;;;;8283460;28;20198;-70
2023/08/16 06:37:44;;;;;;;11.88;10.20;;;;;23.50;96707.00;;;;8284515;28;20880;-70
2023/08/16 06:41:48;;;;;;;11.40;10.18;;;;;23.70;96721.00;;;;8289339;28;20285;-71
2023/08/16 06:45:53;;;;;;;12.90;9.23;;;;;24.10;96719.00;;;;8285516;28;20641;-71
2023/08/16 06:50:00;;;;;;;14.55;10.10;;;;;24.40;96726.00;;;;8286161;28;20206;-71
2023/08/16 06:54:05;;;;;;;13.40;10.68;;;;;24.50;96718.00;;;;8285218;28;20936;-70
2023/08/16 06:58:08;;;;;;;14.77;10.43;;;;;24.60;96724.00;;;;8282892;28;20240;-71
2023/08/16 07:02:13;;;;;;;12.48;9.82;;;;;24.80;96720.00;;;;8283497;28;20701;-69
2023/08/16 07:06:18;;;;;;;10.55;9.45;;;;;24.90;96721.00;;;;8276787;28;20198;-70
2023/08/16 07:10:23;;;;;;;10.93;9.10;;;;;24.90;96727.00;;;;8267871;28;20253;-70
2023/08/16 07:14:27;;;;;;;10.95;9.40;;;;;24.80;96725.00;;;;8272179;28;20290;-70
2023/08/16 07:18:33;;;;;;;14.07;10.75;;;;;24.70;96732.00;;;;8253037;28;20222;-70
2023/08/16 07:22:38;;;;;;;15.38;9.48;;;;;24.90;96728.00;;;;8255735;28;20194;-71
2023/08/16 07:26:43;;;;;;;10.82;8.13;;;;;26.00;96730.00;;;;8266003;28;20644;-69
2023/08/16 07:30:48;;;;;;;8.75;7.75;;;;;27.60;96739.00;;;;8275946;28;20201;-71
2023/08/16 07:34:52;;;;;;;10.85;7.57;;;;;29.10;96736.00;;;;8280740;28;20595;-71
2023/08/16 07:38:57;;;;;;;7.28;6.57;;;;;30.30;96741.00;;;;8280485;28;20984;-70
2023/08/16 07:43:03;;;;;;;10.18;6.82;;;;;31.30;96735.00;;;;8269913;28;20207;-71
2023/08/16 07:47:11;;;;;;;15.23;7.35;;;;;32.20;96744.00;;;;8279185;28;20206;-71
2023/08/16 07:51:20;;;;;;;8.05;6.93;;;;;32.60;96752.00;;;;8281978;28;20197;-72
2023/08/16 07:55:31;;;;;;;11.90;7.28;;;;;33.10;96757.00;;;;8279295;28;20203;-72
2023/08/16 07:59:36;;;;;;;6.47;5.88;;;;;33.60;96756.00;;;;8279117;28;20736;-75
2023/08/16 08:03:40;;;;;;;9.55;5.97;;;;;33.00;96748.00;;;;8275160;28;20316;-75
2023/08/16 08:07:43;;;;;;;8.85;6.55;;;;;32.00;96747.00;;;;8274558;28;20248;-73
2023/08/16 08:11:46;;;;;;;6.97;5.50;;;;;31.80;96751.00;;;;8273654;28;20202;-72
2023/08/16 08:15:54;;;;;;;7.18;6.47;;;;;32.40;96739.00;;;;8276829;28;20202;-73
2023/08/16 08:19:58;;;;;;;8.43;5.95;;;;;32.90;96735.00;;;;8277131;28;20679;-74
2023/08/16 08:24:01;;;;;;;6.63;5.80;;;;;32.90;96731.00;;;;8255427;28;20651;-74
2023/08/16 08:28:07;;;;;;;8.52;6.15;;;;;32.80;96724.00;;;;8274688;28;20202;-73
2023/08/16 08:32:12;;;;;;;7.03;5.78;;;;;32.70;96725.00;;;;8278420;28;20204;-73
2023/08/16 08:36:16;;;;;;;6.95;5.65;;;;;32.90;96743.00;;;;8282493;28;20946;-73
2023/08/16 08:40:20;;;;;;;9.20;6.07;;;;;33.40;96744.00;;;;8275195;28;20230;-73
2023/08/16 08:44:27;;;;;;;6.35;5.75;;;;;33.20;96748.00;;;;8270037;28;20203;-74
2023/08/16 08:48:33;;;;;;;9.90;6.95;;;;;33.50;96751.00;;;;8261974;28;20257;-75
2023/08/16 08:52:38;;;;;;;9.82;6.93;;;;;33.30;96749.00;;;;8264408;28;20703;-72
2023/08/16 08:56:42;;;;;;;7.03;6.30;;;;;33.40;96763.00;;;;8271184;28;20203;-72
2023/08/16 09:00:46;;;;;;;9.70;6.10;;;;;34.00;96754.00;;;;8272591;28;20241;-72
2023/08/16 09:04:53;;;;;;;6.80;6.10;;;;;34.60;96748.00;;;;8273336;28;20198;-71
2023/08/16 09:09:07;;;;;;;7.80;6.60;;;;;34.60;96745.00;;;;8271466;28;20195;-73
2023/08/16 09:13:10;;;;;;;12.23;6.38;;;;;34.10;96747.00;;;;8274028;28;20198;-71
2023/08/16 09:17:18;;;;;;;9.52;6.32;;;;;34.00;96746.00;;;;8282289;28;20198;-71
2023/08/16 09:21:24;;;;;;;14.13;7.25;;;;;34.00;96736.00;;;;8274912;28;20225;-71
2023/08/16 09:25:31;;;;;;;8.02;6.28;;;;;33.80;96748.00;;;;8278864;28;20198;-71
2023/08/16 09:29:41;;;;;;;10.93;6.28;;;;;33.30;96750.00;;;;8276421;28;20286;-71
2023/08/16 09:33:44;;;;;;;9.40;6.32;;;;;32.90;96750.00;;;;8284421;28;20198;-71
2023/08/16 09:37:49;;;;;;;7.88;6.10;;;;;33.20;96746.00;;;;8283065;28;20202;-69
2023/08/16 09:41:54;;;;;;;9.93;6.80;;;;;33.70;96752.00;;;;8283869;28;20861;-69
2023/08/16 09:46:10;;;;;;;17.17;6.90;;;;;33.70;96750.00;;;;8281358;28;20668;-69
2023/08/16 09:50:21;;;;;;;10.25;5.72;;;;;33.90;96746.00;;;;8287459;28;20210;-68
2023/08/16 09:54:28;;;;;;;12.38;6.25;;;;;34.30;96746.00;;;;8284861;28;20194;-69
2023/08/16 09:58:34;;;;;;;6.63;5.68;;;;;34.10;96750.00;;;;8280230;28;20209;-69
2023/08/16 10:02:41;;;;;;;15.85;6.25;;;;;34.30;96746.00;;;;8281782;28;20257;-69
2023/08/16 10:06:47;;;;;;;6.35;5.75;;;;;34.60;96746.00;;;;8279305;28;20206;-70
2023/08/16 10:10:57;;;;;;;6.85;5.32;;;;;34.20;96742.00;;;;8281098;28;20214;-70
2023/08/16 10:15:00;;;;;;;9.40;5.78;;;;;34.30;96736.00;;;;8276707;28;20209;-68
2023/08/16 10:19:05;;;;;;;12.02;5.38;;;;;34.90;96741.00;;;;8276997;28;20322;-71
2023/08/16 10:23:12;;;;;;;9.88;5.00;;;;;35.00;96733.00;;;;8275642;28;20261;-72
2023/08/16 10:27:24;;;;;;;9.20;5.57;;;;;35.40;96730.00;;;;8256135;28;20198;-71
2023/08/16 10:31:39;;;;;;;8.15;5.22;;;;;35.80;96731.00;;;;8273100;28;20889;-72
2023/08/16 10:35:43;;;;;;;9.18;5.72;;;;;35.80;96726.00;;;;8277884;28;20217;-71
2023/08/16 10:39:49;;;;;;;7.38;5.53;;;;;35.50;96722.00;;;;8275956;28;20240;-72
2023/08/16 10:43:57;;;;;;;6.43;5.10;;;;;36.00;96721.00;;;;8278617;28;20218;-71
2023/08/16 10:48:09;;;;;;;10.63;5.50;;;;;36.60;96724.00;;;;8280870;28;20194;-70
2023/08/16 10:52:12;;;;;;;7.40;5.28;;;;;36.90;96724.00;;;;8269848;28;20290;-71
2023/08/16 10:56:17;;;;;;;8.90;5.07;;;;;37.10;96721.00;;;;8278681;28;20280;-72
2023/08/16 11:00:32;;;;;;;7.38;5.25;;;;;37.20;96721.00;;;;8269021;28;20227;-69
2023/08/16 11:04:37;;;;;;;8.35;4.72;;;;;37.40;96721.00;;;;8268237;28;20230;-72
2023/08/16 11:08:42;;;;;;;9.60;4.85;;;;;38.00;96721.00;;;;8267955;28;20210;-75
2023/08/16 11:12:46;;;;;;;7.68;4.82;;;;;38.30;96715.00;;;;8274256;28;20671;-74
2023/08/16 11:16:56;;;;;;;6.30;4.32;;;;;38.20;96713.00;;;;8273827;28;20208;-73
2023/08/16 11:21:00;;;;;;;7.95;5.50;;;;;38.40;96712.00;;;;8273439;28;20231;-75
2023/08/16 11:25:03;;;;;;;5.22;4.20;;;;;38.60;96712.00;;;;8265234;28;20213;-74
2023/08/16 11:29:08;;;;;;;6.03;4.63;;;;;38.80;96707.00;;;;8264611;28;20287;-74
2023/08/16 11:33:16;;;;;;;8.38;4.70;;;;;38.90;96708.00;;;;8269865;28;20278;-74
2023/08/16 11:37:20;;;;;;;6.90;4.30;;;;;38.20;96696.00;;;;8260064;28;20194;-74
2023/08/16 11:41:35;;;;;;;6.10;4.43;;;;;38.30;96696.00;;;;8278198;28;20678;-74
2023/08/16 11:45:39;;;;;;;9.63;4.70;;;;;38.20;96690.00;;;;8270674;28;20298;-74
2023/08/16 11:49:47;;;;;;;12.68;4.50;;;;;38.90;96691.00;;;;8281274;28;20659;-74
2023/08/16 11:53:52;;;;;;;5.68;3.40;;;;;38.90;96697.00;;;;8277862;28;20198;-74
2023/08/16 11:57:55;;;;;;;9.57;4.00;;;;;37.70;96694.00;;;;8277971;28;20241;-74
2023/08/16 12:02:08;;;;;;;8.55;4.45;;;;;37.30;96689.00;;;;8260752;28;20233;-79
2023/08/16 12:06:14;;;;;;;5.88;4.07;;;;;37.10;96684.00;;;;8274035;28;20210;-77
2023/08/16 12:10:27;;;;;;;6.63;3.92;;;;;37.10;96691.00;;;;8271041;28;20237;-71
2023/08/16 12:14:32;;;;;;;5.43;4.00;;;;;36.70;96692.00;;;;8273713;28;20663;-72
2023/08/16 12:18:39;;;;;;;4.85;3.75;;;;;36.20;96681.00;;;;8277293;28;20203;-74
2023/08/16 12:22:44;;;;;;;5.28;3.92;;;;;35.70;96672.00;;;;8274357;28;20223;-74
2023/08/16 12:26:48;;;;;;;6.90;3.90;;;;;35.60;96675.00;;;;8275644;28;20202;-74
2023/08/16 12:30:52;;;;;;;5.25;4.05;;;;;35.40;96678.00;;;;8276554;28;20317;-74
2023/08/16 12:34:56;;;;;;;5.18;4.00;;;;;35.30;96679.00;;;;8272191;28;20296;-72
2023/08/16 12:39:05;;;;;;;6.00;4.10;;;;;35.30;96670.00;;;;8269736;28;20245;-73
2023/08/16 12:43:10;;;;;;;4.95;4.03;;;;;35.30;96680.00;;;;8273982;28;20229;-72
2023/08/16 12:47:19;;;;;;;6.05;4.32;;;;;34.90;96672.00;;;;8277828;28;20209;-72
2023/08/16 12:51:22;;;;;;;9.52;4.20;;;;;34.80;96664.00;;;;8269847;28;20655;-72
2023/08/16 12:55:29;;;;;;;10.70;3.97;;;;;34.90;96660.00;;;;8269176;28;20198;-72
2023/08/16 12:59:35;;;;;;;6.80;3.95;;;;;34.90;96652.00;;;;8263253;28;20284;-71
2023/08/16 13:03:55;;;;;;;4.05;3.65;;;;;34.80;96648.00;;;;8270871;28;20248;-74
2023/08/16 13:08:01;;;;;;;5.50;3.92;;;;;35.00;96645.00;;;;8272740;28;20226;-75
2023/08/16 13:12:09;;;;;;;7.35;4.10;;;;;35.10;96635.00;;;;8265086;28;20676;-77
2023/08/16 13:16:15;;;;;;;7.03;4.05;;;;;35.00;96623.00;;;;8275230;28;20198;-72
2023/08/16 13:20:32;;;;;;;8.60;4.35;;;;;34.90;96626.00;;;;8272772;28;20218;-72
2023/08/16 13:24:38;;;;;;;3.90;3.60;;;;;34.90;96628.00;;;;8271657;28;20209;-72
2023/08/16 13:29:04;;;;;;;7.32;3.63;;;;;35.00;96630.00;;;;8263865;28;20739;-72
2023/08/16 13:33:12;;;;;;;6.45;3.55;;;;;35.10;96627.00;;;;8267954;28;20213;-72
2023/08/16 13:37:36;;;;;;;5.15;4.05;;;;;35.10;96619.00;;;;8279383;28;20198;-72
2023/08/16 13:41:43;;;;;;;8.07;3.53;;;;;35.40;96617.00;;;;8276503;28;20248;-70
2023/08/16 13:45:50;;;;;;;8.25;3.40;;;;;36.10;96615.00;;;;8279408;28;20252;-70
2023/08/16 13:49:55;;;;;;;4.88;3.58;;;;;36.90;96614.00;;;;8276865;28;20205;-71
2023/08/16 13:54:01;;;;;;;3.47;3.17;;;;;37.50;96619.00;;;;8265945;28;20652;-69
2023/08/16 13:58:06;;;;;;;4.57;3.67;;;;;38.10;96623.00;;;;8265332;28;20206;-71
2023/08/16 14:02:14;;;;;;;3.60;3.10;;;;;38.30;96626.00;;;;8270106;28;20324;-71
2023/08/16 14:06:17;;;;;;;4.65;3.40;;;;;38.70;96624.00;;;;8281975;28;20198;-69
2023/08/16 14:10:25;;;;;;;7.30;3.78;;;;;38.90;96632.00;;;;8284598;28;20697;-70
2023/08/16 14:14:29;;;;;;;3.28;3.00;;;;;39.10;96620.00;;;;8284070;28;20261;-70
2023/08/16 14:18:37;;;;;;;6.70;3.33;;;;;39.40;96623.00;;;;8272478;28;20305;-70
2023/08/16 14:22:42;;;;;;;5.05;3.45;;;;;39.30;96624.00;;;;8271113;28;20961;-70
2023/08/16 14:26:46;;;;;;;3.28;2.97;;;;;39.50;96628.00;;;;8285277;28;20293;-70
2023/08/16 14:30:51;;;;;;;7.00;3.33;;;;;39.60;96623.00;;;;8267666;28;20651;-70
2023/08/16 14:34:56;;;;;;;3.33;2.90;;;;;39.60;96615.00;;;;8267168;28;20659;-70
2023/08/16 14:39:00;;;;;;;5.90;3.15;;;;;39.50;96615.00;;;;8288879;28;20245;-70
2023/08/16 14:43:11;;;;;;;5.15;2.95;;;;;39.40;96610.00;;;;8267279;28;20231;-70
2023/08/16 14:47:19;;;;;;;2.80;2.60;;;;;39.20;96599.00;;;;8271335;28;20202;-70
2023/08/16 14:51:24;;;;;;;3.88;3.03;;;;;39.20;96596.00;;;;8277254;28;20294;-70
2023/08/16 14:55:27;;;;;;;3.20;2.92;;;;;38.90;96586.00;;;;8264566;28;20212;-71
2023/08/16 14:59:30;;;;;;;5.63;3.20;;;;;38.70;96593.00;;;;8280515;28;22103;-71
2023/08/16 15:03:38;;;;;;;4.28;2.90;;;;;38.50;96586.00;;;;8280478;28;20234;-71
2023/08/16 15:07:44;;;;;;;3.17;2.83;;;;;38.80;96586.00;;;;8282468;28;20210;-71
2023/08/16 15:11:54;;;;;;;6.43;3.53;;;;;38.70;96595.00;;;;8280752;28;20212;-71
2023/08/16 15:15:57;;;;;;;3.45;3.20;;;;;38.60;96603.00;;;;8272266;28;21067;-71
2023/08/16 15:20:02;;;;;;;3.55;3.00;;;;;38.40;96595.00;;;;8283148;28;20198;-71
2023/08/16 15:24:09;;;;;;;3.47;3.00;;;;;38.20;96584.00;;;;8279299;28;20226;-71
2023/08/16 15:28:12;;;;;;;5.20;3.20;;;;;37.90;96589.00;;;;8281918;28;20202;-70
2023/08/16 15:32:19;;;;;;;5.70;3.13;;;;;37.60;96579.00;;;;8271235;28;20257;-71
2023/08/16 15:36:25;;;;;;;9.27;2.80;;;;;37.30;96565.00;;;;8263208;28;20198;-71
2023/08/16 15:40:30;;;;;;;3.85;2.97;;;;;36.90;96572.00;;;;8279891;28;20212;-71
2023/08/16 15:44:36;;;;;;;3.60;2.85;;;;;36.30;96572.00;;;;8272574;28;20389;-71
2023/08/16 15:48:41;;;;;;;4.70;3.10;;;;;36.10;96557.00;;;;8278308;28;20195;-72
2023/08/16 15:52:46;;;;;;;6.25;3.00;;;;;36.40;96558.00;;;;8280822;28;20210;-71
2023/08/16 15:56:51;;;;;;;4.47;3.30;;;;;36.70;96555.00;;;;8274816;28;20205;-72
2023/08/16 16:00:55;;;;;;;4.13;3.03;;;;;36.90;96555.00;;;;8285649;28;22114;-72
2023/08/16 16:04:58;;;;;;;3.10;2.90;;;;;36.90;96553.00;;;;8284618;28;20220;-73
2023/08/16 16:09:02;;;;;;;3.42;3.00;;;;;37.00;96548.00;;;;8266162;28;20212;-72
2023/08/16 16:13:07;;;;;;;7.35;3.10;;;;;37.00;96539.00;;;;8265016;28;20697;-72
2023/08/16 16:17:20;;;;;;;3.92;3.17;;;;;36.70;96538.00;;;;8280905;28;20198;-72
2023/08/16 16:21:26;;;;;;;5.57;2.30;;;;;36.40;96548.00;;;;8279044;28;20280;-72
2023/08/16 16:25:30;;;;;;;3.88;2.95;;;;;36.10;96547.00;;;;8279970;28;20289;-73
2023/08/16 16:29:36;;;;;;;5.15;2.88;;;;;36.10;96551.00;;;;8271851;28;20644;-72
2023/08/16 16:33:44;;;;;;;2.97;2.45;;;;;36.20;96553.00;;;;8277894;28;20207;-73
2023/08/16 16:37:48;;;;;;;7.95;2.80;;;;;36.40;96556.00;;;;8279509;28;20314;-74
2023/08/16 16:41:54;;;;;;;3.92;3.00;;;;;36.70;96549.00;;;;8270078;28;20232;-72
2023/08/16 16:46:04;;;;;;;2.97;2.78;;;;;36.90;96546.00;;;;8264141;28;20226;-72
2023/08/16 16:50:15;;;;;;;5.68;2.97;;;;;37.10;96542.00;;;;8263162;28;22185;-72
2023/08/16 16:54:19;;;;;;;3.40;2.72;;;;;37.30;96538.00;;;;8270595;28;20206;-73
2023/08/16 16:58:34;;;;;;;3.08;2.75;;;;;37.40;96545.00;;;;8282538;28;20281;-72
2023/08/16 17:02:39;;;;;;;4.75;3.00;;;;;37.30;96541.00;;;;8281511;28;20716;-72
2023/08/16 17:06:44;;;;;;;6.68;3.35;;;;;37.30;96542.00;;;;8280322;28;20233;-73
2023/08/16 17:10:47;;;;;;;5.47;4.10;;;;;37.40;96549.00;;;;8269772;28;20245;-72
2023/08/16 17:14:51;;;;;;;3.80;3.42;;;;;37.20;96544.00;;;;8274309;28;20952;-73
2023/08/16 17:18:57;;;;;;;4.97;3.47;;;;;37.10;96554.00;;;;8282718;28;20210;-73
2023/08/16 17:23:02;;;;;;;5.03;3.10;;;;;37.00;96554.00;;;;8281191;28;20301;-74
2023/08/16 17:27:05;;;;;;;4.38;3.85;;;;;36.80;96553.00;;;;8281695;28;20246;-73
2023/08/16 17:31:10;;;;;;;6.45;3.08;;;;;36.20;96562.00;;;;8276675;28;20272;-72
2023/08/16 17:35:15;;;;;;;6.68;3.30;;;;;35.40;96565.00;;;;8258432;28;20206;-74
2023/08/16 17:39:19;;;;;;;3.90;3.30;;;;;34.50;96566.00;;;;8278384;28;20216;-74
2023/08/16 17:43:23;;;;;;;6.03;3.50;;;;;33.60;96575.00;;;;8277167;28;20795;-72
2023/08/16 17:47:27;;;;;;;8.38;3.58;;;;;32.70;96574.00;;;;8265422;28;20194;-73
2023/08/16 17:51:42;;;;;;;8.65;3.85;;;;;31.80;96579.00;;;;8279801;28;20264;-71
2023/08/16 17:55:46;;;;;;;13.10;4.95;;;;;31.00;96583.00;;;;8270583;28;20190;-68
2023/08/16 17:59:49;;;;;;;5.65;3.97;;;;;30.40;96586.00;;;;8281534;28;20282;-68
2023/08/16 18:03:52;;;;;;;5.85;3.88;;;;;29.90;96588.00;;;;8278623;28;20245;-68
2023/08/16 18:07:57;;;;;;;8.15;3.97;;;;;29.40;96595.00;;;;8285725;28;20202;-69
2023/08/16 18:12:01;;;;;;;6.38;4.45;;;;;29.00;96604.00;;;;8279377;28;20289;-69
2023/08/16 18:16:05;;;;;;;9.52;4.50;;;;;28.70;96602.00;;;;8282875;28;20260;-68
2023/08/16 18:20:10;;;;;;;10.65;4.60;;;;;28.50;96605.00;;;;8283929;28;20202;-67
2023/08/16 18:24:15;;;;;;;11.02;4.65;;;;;28.20;96600.00;;;;8278678;28;20262;-68
2023/08/16 18:28:20;;;;;;;9.30;4.88;;;;;28.00;96598.00;;;;8282226;28;20306;-68
2023/08/16 18:32:23;;;;;;;10.77;4.57;;;;;27.90;96595.00;;;;8285384;28;20213;-68
2023/08/16 18:36:34;;;;;;;8.07;5.05;;;;;27.60;96597.00;;;;8273189;28;20202;-68
2023/08/16 18:40:40;;;;;;;7.40;4.82;;;;;27.30;96595.00;;;;8281015;28;20210;-68
2023/08/16 18:44:43;;;;;;;9.95;4.88;;;;;27.10;96593.00;;;;8282625;28;20361;-68
2023/08/16 18:48:46;;;;;;;21.23;5.72;;;;;26.80;96591.00;;;;8285700;28;20202;-69
2023/08/16 18:52:52;;;;;;;14.27;5.47;;;;;26.70;96584.00;;;;8281313;28;20210;-69
2023/08/16 18:56:56;;;;;;;11.60;5.75;;;;;26.60;96602.00;;;;8290989;28;20229;-69
2023/08/16 19:01:00;;;;;;;6.07;4.80;;;;;26.40;96594.00;;;;8279648;28;20293;-69
2023/08/16 19:05:03;;;;;;;9.02;5.30;;;;;26.20;96598.00;;;;8274142;28;20234;-69
2023/08/16 19:09:06;;;;;;;9.05;4.72;;;;;26.00;96602.00;;;;8277106;28;20828;-69
2023/08/16 19:13:12;;;;;;;9.07;5.22;;;;;25.80;96595.00;;;;8277773;28;20631;-69
2023/08/16 19:17:15;;;;;;;9.10;5.22;;;;;25.50;96604.00;;;;8286922;28;20835;-69
2023/08/16 19:21:25;;;;;;;6.25;5.65;;;;;25.40;96612.00;;;;8266133;28;20256;-69
2023/08/16 19:25:28;;;;;;;8.77;5.35;;;;;25.40;96612.00;;;;8274672;28;20225;-70
2023/08/16 19:29:35;;;;;;;11.52;5.45;;;;;25.30;96617.00;;;;8256036;28;20864;-70
2023/08/16 19:33:41;;;;;;;9.82;5.25;;;;;25.10;96620.00;;;;8266266;28;20657;-69
2023/08/16 19:37:44;;;;;;;7.75;5.50;;;;;25.00;96618.00;;;;8270682;28;20895;-74
2023/08/16 19:41:47;;;;;;;10.95;5.90;;;;;25.00;96613.00;;;;8283643;28;20214;-73
2023/08/16 19:45:52;;;;;;;9.48;6.10;;;;;25.00;96601.00;;;;8279737;28;20341;-73
2023/08/16 19:49:56;;;;;;;9.10;5.88;;;;;25.10;96602.00;;;;8269601;28;20248;-73
2023/08/16 19:53:59;;;;;;;7.85;5.20;;;;;25.20;96609.00;;;;8259735;28;20285;-72
2023/08/16 19:58:05;;;;;;;8.38;6.22;;;;;25.10;96614.00;;;;8267713;28;20678;-75
2023/08/16 20:02:11;;;;;;;13.55;6.28;;;;;24.90;96594.00;;;;8273347;28;20313;-71
2023/08/16 20:06:20;;;;;;;6.40;5.47;;;;;24.90;96594.00;;;;8272753;28;20198;-71
2023/08/16 20:10:24;;;;;;;7.07;6.28;;;;;24.90;96586.00;;;;8269648;28;20206;-71
2023/08/16 20:14:27;;;;;;;8.77;6.88;;;;;24.80;96575.00;;;;8272467;28;20194;-69
2023/08/16 20:18:34;;;;;;;15.15;6.30;;;;;24.80;96577.00;;;;8277606;28;20672;-70